Scroll down
FLIGHT INFORMATION
United Parcel Service (UPS)

UPS81

At Arrival Gate

PANC
 KSDF
DATE: 2020-09-16
GATE:  -
GATE DEPARTURE: 11:00
TAKEOFF: 11:08
DATE: 2020-09-16
GATE: 17
LANDING: 16:27
GATE ARRIVAL: 16:36
FLIGHT DATA
Crew: 
Speed: 
498 kts
Altitude: 
35,014 ft
Stage Length: 
2,706.7 nm
Block Time: 
5.5 hrs
Flight Time: 
5.3 hrs
Fuel Used: 
122,396 lb
Cleared Route: PANC TED YESKA TMSON JAGIT 60N30 YOJ TULAG PETMA YQD VBI HLDOL DLH DLL JOT RAMSE KSDF
TRACK DATA
50,000 ft 1,000 kts
AIRCRAFT INFO AND CUMULATIVE STATS
Aircraft Type: 
B744F
Registration: 
SELCAL: 
BKLQ
MSN/LN: 
25867 / 1008
Total Flights: 
4
Total Block Time: 
32.1 hrs
Total Flight Time: 
31.3 hrs
Total Fuel Used: 
718,537 lb
DATALINK LOG | Newest first | Current as of: 2022-10-05 09:57:33
LABEL SEQUENCE CONTENT Dn/Up
5Z365716 SEP 20 16:36:52z / FLT DECK GOOD / ACF POS GOOD / GRND SERVICES GOOD / MAINT GOOD▼ Dn
QD365616:36 42.5▼ Dn
QC274816:27▼ Dn
2U2012KSDF 161556Z 00000KT 10SM FEW032 SCT065 23/17 A3010 RMK AO2 SLP188 T02280167▲ Up
2S2042KSDF▼ Dn
GA4118CARGO STAND 17▲ Up
GR4108KSDF 16:25 MAAS YP/UM WCHR/S/C HI-VAL NO DIPL/VIP NO▼ Dn
2U2836KSDF 161456Z 00000KT 10SM BKN032 20/15 A3011 RMK AO2 SLP194 T02000150 53005▲ Up
2S2757KSDF▼ Dn
UM341450CRUISE CLIMB TO 350▲ Up
UM170860AT 14 PAST THE HOUR EXPECT CRUISE CLIMB TO 350▲ Up
DM540850WHEN CAN WE EXPECT CRUISE CLIMB TO FL 350▼ Dn
UM0 UM190759UNABLE. MAINTAIN ASSIGNED ALTITUDE▲ Up
DM60749REQUEST FL 350 DUE TO A/C PERF▼ Dn
QB091511:08▼ Dn
QA000711:00 165.1▼ Dn
2U4835PANC 160953Z 00000KT 10SM -RA FEW049 BKN060 BKN070 10/08 A3004 RMK AO2 RAE18B44 SLP174 P0000 T01000078▲ Up
2S4755PANC▼ Dn
A34704CLEARED TO KSDF VIA TED YESKA NCA13 JAGIT 60N130W YOJ TULAG Q963 PETMA YQD VBI J538 DLL JOT RAMSE FRIZN5. SQUAWK .▲ Up
B34654PANC KSDF UPS81 N583UP ▼ Dn
Q04553[LINK ACK]▲ Up
Q04553[LINK TEST]▼ Dn


AIRCRAFT HISTORY
FLIGHT DATE FLIGHT NO. ORIGIN DESTINATION CLEARED ROUTE BLOCK TIME FLIGHT TIME FUEL USED PILOT
2021-04-09UPS408KSUU RKSI KSUU ENI BOXER FULMR FASEL 51N40 54N50 55N60 CDB BILBE SPY CREMR PINTT ONEIL NYMPH NUZAN NRKEY NIPPI NOGAL NUBDA NANNO NODAN ASTER SDE ELDAK GTC NESKO SAMON SUGNO SAPRA BULGA KPO ELAPI CUN BIGOB BASEM ENSAL GUKDO RKSI12.9 hrs12.6 hrs281,688 lbKevin Hall
2021-03-30UPS330PHNL KSUU PHNL CLUTS CEBEN CIVIT CORTT CUNDU CREAN CINNY ROVUE KSUU4.9 hrs4.8 hrs103,582 lbKevin Hall
2020-09-18UPS32KSDF PHNL KSDF APALO ENL MCI FQF DTA PAWLY MVA BABIT SONNY MELTS LIN OAK BEBOP BAART BARAZ BILLO BEKME BOARD BITTA PHNL8.8 hrs8.6 hrs210,871 lbAnton Vind
2020-09-16UPS81PANC KSDF PANC TED YESKA TMSON JAGIT 60N30 YOJ TULAG PETMA YQD VBI HLDOL DLH DLL JOT RAMSE KSDF5.5 hrs5.3 hrs122,396 lbAnton Vind